createdAt,value
2023-05-02T00:00:16.909Z,318
2023-05-02T00:00:47.533Z,318
2023-05-02T00:01:19.587Z,318
2023-05-02T00:01:51.472Z,318
2023-05-02T00:02:23.562Z,318
2023-05-02T00:02:55.540Z,318
2023-05-02T00:03:27.632Z,324
2023-05-02T00:03:59.764Z,321
2023-05-02T00:04:31.512Z,324
2023-05-02T00:05:04.263Z,324
2023-05-02T00:05:35.332Z,324
2023-05-02T00:06:07.555Z,324
2023-05-02T00:06:39.313Z,324
2023-05-02T00:07:11.213Z,324
2023-05-02T00:07:43.188Z,324
2023-05-02T00:08:15.144Z,324
2023-05-02T00:08:47.543Z,328
2023-05-02T00:09:19.223Z,326
2023-05-02T00:09:51.073Z,326
2023-05-02T00:10:23.609Z,326
2023-05-02T00:10:55.145Z,326
2023-05-02T00:11:26.980Z,321
2023-05-02T00:11:43.104Z,321
2023-05-02T00:12:14.996Z,321
2023-05-02T00:12:59.253Z,326
2023-05-02T00:13:30.869Z,327
2023-05-02T00:14:03.609Z,326
2023-05-02T00:14:34.922Z,326
2023-05-02T00:15:08.668Z,328
2023-05-02T00:15:38.809Z,328
2023-05-02T00:15:55.146Z,325
2023-05-02T00:16:27.053Z,324
2023-05-02T00:17:10.891Z,324
2023-05-02T00:17:42.816Z,324
2023-05-02T00:18:14.705Z,323
2023-05-02T00:18:46.956Z,324
2023-05-02T00:19:18.913Z,324
2023-05-02T00:19:50.787Z,324
2023-05-02T00:20:22.833Z,323
2023-05-02T00:20:54.745Z,324
2023-05-02T00:21:10.775Z,324
2023-05-02T00:21:42.585Z,323
2023-05-02T00:22:26.788Z,324
2023-05-02T00:22:58.532Z,323
2023-05-02T00:23:14.674Z,323
2023-05-02T00:23:46.522Z,324
2023-05-02T00:24:30.510Z,324
2023-05-02T00:25:03.865Z,324
2023-05-02T00:25:34.412Z,324
2023-05-02T00:26:06.386Z,325
2023-05-02T00:26:38.506Z,328
2023-05-02T00:27:10.521Z,329
2023-05-02T00:27:42.225Z,328
2023-05-02T00:28:14.465Z,328
2023-05-02T00:28:46.542Z,328
2023-05-02T00:29:18.290Z,328
2023-05-02T00:29:50.405Z,328
2023-05-02T00:30:22.797Z,328
2023-05-02T00:30:54.292Z,323
2023-05-02T00:31:26.407Z,319
2023-05-02T00:31:58.260Z,319
2023-05-02T00:32:30.154Z,318
2023-05-02T00:33:02.728Z,317
2023-05-02T00:33:34.316Z,324
2023-05-02T00:34:06.126Z,323
2023-05-02T00:34:38.269Z,324
2023-05-02T00:35:10.368Z,328
2023-05-02T00:35:42.088Z,316
2023-05-02T00:36:13.933Z,315
2023-05-02T00:36:46.060Z,316
2023-05-02T00:37:18.131Z,325
2023-05-02T00:37:50.038Z,335
2023-05-02T00:38:21.775Z,341
2023-05-02T00:38:53.905Z,341
2023-05-02T00:39:25.982Z,341
2023-05-02T00:39:58.482Z,341
2023-05-02T00:40:30.072Z,341
2023-05-02T00:41:03.238Z,341
2023-05-02T00:41:33.733Z,341
2023-05-02T00:42:05.890Z,341
2023-05-02T00:42:37.736Z,341
2023-05-02T00:42:53.867Z,341
2023-05-02T00:43:37.756Z,341
2023-05-02T00:44:09.664Z,341
2023-05-02T00:44:41.765Z,341
2023-05-02T00:45:14.762Z,341
2023-05-02T00:45:45.573Z,341
2023-05-02T00:46:17.792Z,341
2023-05-02T00:46:49.823Z,341
2023-05-02T00:47:21.298Z,341
2023-05-02T00:47:53.570Z,341
2023-05-02T00:48:25.503Z,341
2023-05-02T00:48:57.540Z,341
2023-05-02T00:49:29.566Z,341
2023-05-02T00:50:02.651Z,341
2023-05-02T00:50:33.384Z,341
2023-05-02T00:51:05.735Z,341
2023-05-02T00:51:37.648Z,341
2023-05-02T00:51:53.671Z,341
2023-05-02T00:52:25.276Z,340
2023-05-02T00:52:41.411Z,324
2023-05-02T00:53:13.538Z,324
2023-05-02T00:53:45.250Z,324
2023-05-02T00:54:17.496Z,324
2023-05-02T00:54:49.461Z,324
2023-05-02T00:55:21.516Z,323
2023-05-02T00:55:53.246Z,322
2023-05-02T00:56:09.330Z,323
2023-05-02T00:56:41.118Z,319
2023-05-02T00:57:25.130Z,319
2023-05-02T00:57:57.252Z,319
2023-05-02T00:58:29.128Z,324
2023-05-02T00:59:01.324Z,330
2023-05-02T00:59:33.031Z,337
2023-05-02T01:00:08.392Z,339
2023-05-02T01:00:37.025Z,327
2023-05-02T01:00:53.386Z,326
2023-05-02T01:01:37.094Z,328
2023-05-02T01:02:09.301Z,328
2023-05-02T01:02:41.047Z,316
2023-05-02T01:03:12.908Z,316
2023-05-02T01:03:45.072Z,321
2023-05-02T01:04:17.074Z,320
2023-05-02T01:04:48.782Z,321
2023-05-02T01:05:20.986Z,326
2023-05-02T01:05:52.849Z,326
2023-05-02T01:06:24.717Z,322
2023-05-02T01:06:56.881Z,322
2023-05-02T01:07:28.775Z,322
2023-05-02T01:08:00.680Z,321
2023-05-02T01:08:32.814Z,319
2023-05-02T01:09:05.000Z,319
2023-05-02T01:09:36.481Z,319
2023-05-02T01:09:52.961Z,319
2023-05-02T01:10:24.719Z,320
2023-05-02T01:10:40.620Z,321
2023-05-02T01:11:12.660Z,319
2023-05-02T01:11:44.521Z,321
2023-05-02T01:12:16.668Z,321
2023-05-02T01:12:48.533Z,322
2023-05-02T01:13:20.641Z,319
2023-05-02T01:13:52.540Z,306
2023-05-02T01:14:08.678Z,310
2023-05-02T01:14:40.309Z,313
2023-05-02T01:15:24.780Z,313
2023-05-02T01:15:56.578Z,312
2023-05-02T01:16:28.266Z,317
2023-05-02T01:17:00.311Z,317
2023-05-02T01:17:32.330Z,317
2023-05-02T01:18:04.538Z,323
2023-05-02T01:18:36.256Z,323
2023-05-02T01:18:52.506Z,313
2023-05-02T01:19:36.416Z,312
2023-05-02T01:20:08.601Z,313
2023-05-02T01:20:40.020Z,340
2023-05-02T01:21:12.136Z,340
2023-05-02T01:21:44.215Z,340
2023-05-02T01:22:16.147Z,340
2023-05-02T01:22:48.288Z,340
2023-05-02T01:23:20.134Z,340
2023-05-02T01:23:52.000Z,333
2023-05-02T01:24:24.156Z,333
2023-05-02T01:24:56.074Z,333
2023-05-02T01:25:28.203Z,334
2023-05-02T01:26:00.119Z,332
2023-05-02T01:26:31.993Z,332
2023-05-02T01:27:04.364Z,329
2023-05-02T01:27:35.893Z,328
2023-05-02T01:27:52.004Z,315
2023-05-02T01:28:23.944Z,310
2023-05-02T01:28:40.073Z,314
2023-05-02T01:29:11.783Z,309
2023-05-02T01:29:44.100Z,309
2023-05-02T01:30:17.382Z,309
2023-05-02T01:30:48.020Z,309
2023-05-02T01:31:19.686Z,309
2023-05-02T01:31:51.654Z,314
2023-05-02T01:32:07.990Z,312
2023-05-02T01:32:39.653Z,312
2023-05-02T01:33:23.720Z,312
2023-05-02T01:33:55.445Z,312
2023-05-02T01:34:27.476Z,313
2023-05-02T01:34:59.555Z,313
2023-05-02T01:35:31.913Z,313
2023-05-02T01:36:04.038Z,313
2023-05-02T01:36:37.120Z,313
2023-05-02T01:37:07.668Z,313
2023-05-02T01:37:39.516Z,313
2023-05-02T01:38:11.585Z,313
2023-05-02T01:38:43.403Z,313
2023-05-02T01:39:15.494Z,313
2023-05-02T01:39:47.655Z,313
2023-05-02T01:40:19.596Z,313
2023-05-02T01:40:51.358Z,313
2023-05-02T01:41:07.432Z,313
2023-05-02T01:41:51.405Z,313
2023-05-02T01:42:23.349Z,313
2023-05-02T01:42:55.046Z,312
2023-05-02T01:43:27.168Z,312
2023-05-02T01:43:59.228Z,312
2023-05-02T01:44:31.094Z,312
2023-05-02T01:45:05.974Z,312
2023-05-02T01:45:35.020Z,312
2023-05-02T01:45:51.618Z,312
2023-05-02T01:46:23.138Z,312
2023-05-02T01:46:39.257Z,311
2023-05-02T01:47:10.995Z,311
2023-05-02T01:47:42.955Z,311
2023-05-02T01:48:15.251Z,311
2023-05-02T01:48:47.326Z,311
2023-05-02T01:49:18.849Z,311
2023-05-02T01:49:51.029Z,311
2023-05-02T01:50:07.260Z,311
2023-05-02T01:50:39.009Z,311
2023-05-02T01:51:23.067Z,311
2023-05-02T01:51:54.670Z,314
2023-05-02T01:52:26.851Z,314
2023-05-02T01:52:58.852Z,314
2023-05-02T01:53:30.745Z,314
2023-05-02T01:54:03.339Z,312
2023-05-02T01:54:34.664Z,325
2023-05-02T01:54:50.961Z,326
2023-05-02T01:55:35.107Z,336
2023-05-02T01:56:06.705Z,328
2023-05-02T01:56:38.692Z,335
2023-05-02T01:57:10.552Z,334
2023-05-02T01:57:42.600Z,339
2023-05-02T01:58:14.752Z,332
2023-05-02T01:58:46.457Z,331
2023-05-02T01:59:18.627Z,331
2023-05-02T01:59:50.813Z,332
2023-05-02T02:00:22.847Z,331
2023-05-02T02:00:39.109Z,332
2023-05-02T02:01:10.510Z,324
2023-05-02T02:01:54.545Z,319
2023-05-02T02:02:26.436Z,319
2023-05-02T02:02:58.320Z,313
2023-05-02T02:03:30.587Z,313
2023-05-02T02:04:03.024Z,313
2023-05-02T02:04:34.353Z,313
2023-05-02T02:05:06.770Z,309
2023-05-02T02:05:22.323Z,311
2023-05-02T02:06:06.288Z,314
2023-05-02T02:06:22.411Z,314
2023-05-02T02:07:06.318Z,314
2023-05-02T02:07:38.581Z,312
2023-05-02T02:08:09.988Z,316
2023-05-02T02:08:42.169Z,318
2023-05-02T02:09:14.225Z,325
2023-05-02T02:09:46.129Z,324
2023-05-02T02:10:18.582Z,324
2023-05-02T02:10:50.130Z,323
2023-05-02T02:11:21.998Z,324
2023-05-02T02:11:54.177Z,324
2023-05-02T02:12:25.975Z,323
2023-05-02T02:12:58.042Z,323
2023-05-02T02:13:30.104Z,323
2023-05-02T02:14:02.785Z,323
2023-05-02T02:14:33.803Z,323
2023-05-02T02:15:07.163Z,323
2023-05-02T02:15:38.106Z,323
2023-05-02T02:16:09.894Z,324
2023-05-02T02:16:41.805Z,323
2023-05-02T02:17:13.767Z,323
2023-05-02T02:17:45.937Z,324
2023-05-02T02:18:17.939Z,324
2023-05-02T02:18:49.693Z,324
2023-05-02T02:19:05.948Z,324
2023-05-02T02:19:49.743Z,324
2023-05-02T02:20:21.984Z,324
2023-05-02T02:20:53.783Z,324
2023-05-02T02:21:25.517Z,324
2023-05-02T02:21:57.778Z,324
2023-05-02T02:22:29.661Z,324
2023-05-02T02:23:01.660Z,323
2023-05-02T02:23:33.410Z,323
2023-05-02T02:24:05.660Z,323
2023-05-02T02:24:21.757Z,323
2023-05-02T02:25:05.806Z,323
2023-05-02T02:25:37.670Z,324
2023-05-02T02:26:09.468Z,324
2023-05-02T02:26:41.425Z,324
2023-05-02T02:27:13.394Z,323
2023-05-02T02:27:45.517Z,323
2023-05-02T02:28:17.525Z,323
2023-05-02T02:28:49.405Z,323
2023-05-02T02:29:21.328Z,323
2023-05-02T02:29:53.584Z,323
2023-05-02T02:30:25.505Z,321
2023-05-02T02:30:57.376Z,320
2023-05-02T02:31:29.439Z,320
2023-05-02T02:32:01.232Z,319
2023-05-02T02:32:33.132Z,317
2023-05-02T02:32:49.465Z,317
2023-05-02T02:33:33.073Z,311
2023-05-02T02:34:05.201Z,324
2023-05-02T02:34:37.030Z,321
2023-05-02T02:35:09.384Z,311
2023-05-02T02:35:41.106Z,315
2023-05-02T02:36:13.045Z,315
2023-05-02T02:36:44.973Z,309
2023-05-02T02:37:17.241Z,317
2023-05-02T02:37:48.948Z,316
2023-05-02T02:38:20.984Z,315
2023-05-02T02:38:52.876Z,315
2023-05-02T02:39:24.811Z,315
2023-05-02T02:39:56.848Z,319
2023-05-02T02:40:29.189Z,319
2023-05-02T02:41:00.833Z,319
2023-05-02T02:41:32.758Z,318
2023-05-02T02:41:49.129Z,318
2023-05-02T02:42:20.709Z,318
2023-05-02T02:42:36.807Z,318
2023-05-02T02:43:08.865Z,318
2023-05-02T02:43:40.556Z,318
2023-05-02T02:44:13.692Z,318
2023-05-02T02:44:44.825Z,318
2023-05-02T02:45:18.637Z,318
2023-05-02T02:45:48.910Z,318
2023-05-02T02:46:05.030Z,318
2023-05-02T02:46:36.588Z,318
2023-05-02T02:47:20.714Z,318
2023-05-02T02:47:52.387Z,318
2023-05-02T02:48:09.178Z,318
2023-05-02T02:48:40.332Z,336
2023-05-02T02:49:24.536Z,336
2023-05-02T02:49:56.592Z,336
2023-05-02T02:50:28.586Z,336
2023-05-02T02:51:00.568Z,336
2023-05-02T02:51:32.419Z,335
2023-05-02T02:52:04.569Z,335
2023-05-02T02:52:36.281Z,335
2023-05-02T02:53:08.503Z,335
2023-05-02T02:53:40.184Z,335
2023-05-02T02:54:25.423Z,330
2023-05-02T02:54:44.166Z,330
2023-05-02T02:55:16.329Z,330
2023-05-02T02:55:48.558Z,330
2023-05-02T02:56:20.241Z,330
2023-05-02T02:56:52.070Z,330
2023-05-02T02:57:24.235Z,330
2023-05-02T02:57:56.047Z,330
2023-05-02T02:58:28.191Z,330
2023-05-02T02:59:00.160Z,330
2023-05-02T02:59:31.893Z,330
2023-05-02T02:59:48.466Z,330
2023-05-02T03:00:20.697Z,326
2023-05-02T03:00:36.144Z,326
2023-05-02T03:01:08.173Z,328
2023-05-02T03:01:40.171Z,329
2023-05-02T03:02:12.042Z,330
2023-05-02T03:02:43.958Z,326
2023-05-02T03:03:15.974Z,326
2023-05-02T03:03:48.092Z,326
2023-05-02T03:04:05.693Z,327
2023-05-02T03:04:35.766Z,330
2023-05-02T03:05:20.174Z,330
2023-05-02T03:05:51.644Z,331
2023-05-02T03:06:23.789Z,330
2023-05-02T03:06:55.778Z,332
2023-05-02T03:07:27.989Z,330
2023-05-02T03:07:59.781Z,330
2023-05-02T03:08:15.812Z,330
2023-05-02T03:08:47.835Z,330
2023-05-02T03:09:31.505Z,332
2023-05-02T03:10:04.709Z,330
2023-05-02T03:10:35.545Z,330
2023-05-02T03:11:07.532Z,330
2023-05-02T03:11:39.635Z,330
2023-05-02T03:12:11.565Z,330
2023-05-02T03:12:43.308Z,330
2023-05-02T03:13:15.499Z,330
2023-05-02T03:13:47.645Z,330
2023-05-02T03:14:19.402Z,330
2023-05-02T03:14:51.310Z,330
2023-05-02T03:15:23.659Z,330
2023-05-02T03:15:55.540Z,330
2023-05-02T03:16:27.366Z,330
2023-05-02T03:16:59.508Z,330
2023-05-02T03:17:31.360Z,330
2023-05-02T03:17:47.629Z,330
2023-05-02T03:18:19.540Z,330
2023-05-02T03:18:35.217Z,330
2023-05-02T03:19:07.317Z,330
2023-05-02T03:19:39.289Z,330
2023-05-02T03:20:11.374Z,324
2023-05-02T03:20:43.161Z,306
2023-05-02T03:21:15.427Z,311
2023-05-02T03:21:47.145Z,311
2023-05-02T03:22:03.944Z,311
2023-05-02T03:22:34.954Z,310
2023-05-02T03:23:19.410Z,307
2023-05-02T03:23:50.919Z,307
2023-05-02T03:24:22.893Z,307
2023-05-02T03:24:55.151Z,307
2023-05-02T03:25:27.199Z,307
2023-05-02T03:25:58.925Z,307
2023-05-02T03:26:30.902Z,307
2023-05-02T03:26:47.014Z,307
2023-05-02T03:27:30.847Z,307
2023-05-02T03:28:03.701Z,307
2023-05-02T03:28:34.697Z,307
2023-05-02T03:29:06.970Z,307
2023-05-02T03:29:38.997Z,313
2023-05-02T03:30:13.623Z,311
2023-05-02T03:30:42.682Z,312
2023-05-02T03:31:14.905Z,312
2023-05-02T03:31:46.799Z,312
2023-05-02T03:32:18.840Z,312
2023-05-02T03:32:50.677Z,312
2023-05-02T03:33:22.547Z,313
2023-05-02T03:33:54.857Z,314
2023-05-02T03:34:26.734Z,317
2023-05-02T03:34:58.797Z,320
2023-05-02T03:35:30.779Z,320
2023-05-02T03:35:46.644Z,320
2023-05-02T03:36:18.770Z,319
2023-05-02T03:36:34.629Z,320
2023-05-02T03:37:06.486Z,320
2023-05-02T03:37:38.794Z,320
2023-05-02T03:38:10.501Z,320
2023-05-02T03:38:42.510Z,319
2023-05-02T03:39:14.258Z,319
2023-05-02T03:39:46.367Z,319
2023-05-02T03:40:03.510Z,319
2023-05-02T03:40:34.471Z,319
2023-05-02T03:41:18.564Z,319
2023-05-02T03:41:50.090Z,319
2023-05-02T03:42:22.335Z,319
2023-05-02T03:42:54.316Z,319
2023-05-02T03:43:26.191Z,319
2023-05-02T03:43:58.449Z,316
2023-05-02T03:44:30.195Z,321
2023-05-02T03:44:46.386Z,322
2023-05-02T03:45:30.586Z,326
2023-05-02T03:46:02.364Z,325
2023-05-02T03:46:34.151Z,316
2023-05-02T03:47:06.130Z,312
2023-05-02T03:47:38.204Z,303
2023-05-02T03:48:10.368Z,310
2023-05-02T03:48:41.984Z,314
2023-05-02T03:49:14.062Z,315
2023-05-02T03:49:46.028Z,315
2023-05-02T03:50:19.426Z,314
2023-05-02T03:50:49.733Z,313
2023-05-02T03:51:21.857Z,312
2023-05-02T03:51:53.973Z,313
2023-05-02T03:52:25.866Z,312
2023-05-02T03:52:58.164Z,314
2023-05-02T03:53:29.879Z,315
2023-05-02T03:54:02.003Z,315
2023-05-02T03:54:33.915Z,321
2023-05-02T03:55:06.018Z,321
2023-05-02T03:55:37.770Z,320
2023-05-02T03:56:09.860Z,319
2023-05-02T03:56:42.881Z,318
2023-05-02T03:57:13.666Z,318
2023-05-02T03:57:45.577Z,318
2023-05-02T03:58:01.964Z,318
2023-05-02T03:58:33.628Z,318
2023-05-02T03:59:17.750Z,317
2023-05-02T03:59:49.447Z,317
2023-05-02T04:00:21.868Z,317
2023-05-02T04:00:53.437Z,317
2023-05-02T04:01:25.513Z,317
2023-05-02T04:01:57.686Z,317
2023-05-02T04:02:29.435Z,317
2023-05-02T04:02:45.687Z,317
2023-05-02T04:03:30.089Z,317
2023-05-02T04:04:01.905Z,317
2023-05-02T04:04:33.470Z,317
2023-05-02T04:05:05.573Z,317
2023-05-02T04:05:37.403Z,317
2023-05-02T04:06:09.599Z,317
2023-05-02T04:06:41.138Z,317
2023-05-02T04:07:13.199Z,317
2023-05-02T04:07:45.297Z,317
2023-05-02T04:08:17.278Z,317
2023-05-02T04:08:49.326Z,317
2023-05-02T04:09:21.166Z,317
2023-05-02T04:09:53.029Z,317
2023-05-02T04:10:25.423Z,317
2023-05-02T04:10:57.125Z,315
2023-05-02T04:11:29.137Z,314
2023-05-02T04:11:45.290Z,314
2023-05-02T04:12:16.946Z,314
2023-05-02T04:12:33.220Z,314
2023-05-02T04:13:05.214Z,314
2023-05-02T04:13:37.085Z,314
2023-05-02T04:14:09.054Z,314
2023-05-02T04:14:40.935Z,314
2023-05-02T04:15:13.709Z,314
2023-05-02T04:15:44.891Z,314
2023-05-02T04:16:01.699Z,314
2023-05-02T04:16:32.747Z,314
2023-05-02T04:17:17.116Z,314
2023-05-02T04:17:48.987Z,314
2023-05-02T04:18:20.727Z,314
2023-05-02T04:18:52.813Z,314
2023-05-02T04:19:24.744Z,314
2023-05-02T04:19:56.516Z,314
2023-05-02T04:20:31.045Z,314
2023-05-02T04:20:45.019Z,314
2023-05-02T04:21:28.892Z,314
2023-05-02T04:22:00.743Z,314
2023-05-02T04:22:32.528Z,314
2023-05-02T04:23:05.332Z,314
2023-05-02T04:23:36.752Z,314
2023-05-02T04:24:08.967Z,314
2023-05-02T04:24:40.715Z,314
2023-05-02T04:25:12.953Z,314
2023-05-02T04:25:44.710Z,314
2023-05-02T04:26:16.743Z,314
2023-05-02T04:26:48.447Z,314
2023-05-02T04:27:20.527Z,314
2023-05-02T04:27:52.608Z,314
2023-05-02T04:28:24.742Z,314
2023-05-02T04:28:56.151Z,314
2023-05-02T04:29:28.466Z,314
2023-05-02T04:30:01.520Z,314
2023-05-02T04:30:32.463Z,314
2023-05-02T04:31:05.027Z,314
2023-05-02T04:31:36.410Z,314
2023-05-02T04:32:08.510Z,314
2023-05-02T04:32:40.372Z,314
2023-05-02T04:33:12.328Z,314
2023-05-02T04:33:44.283Z,314
2023-05-02T04:34:00.335Z,314
2023-05-02T04:34:32.121Z,315
2023-05-02T04:35:16.404Z,317
2023-05-02T04:35:48.460Z,317
2023-05-02T04:36:20.220Z,317
2023-05-02T04:36:52.135Z,317
2023-05-02T04:37:24.189Z,317
2023-05-02T04:37:56.059Z,317
2023-05-02T04:38:12.139Z,317
2023-05-02T04:38:44.153Z,317
2023-05-02T04:39:28.403Z,317
2023-05-02T04:40:01.031Z,317
2023-05-02T04:40:31.872Z,317
2023-05-02T04:41:09.080Z,317
2023-05-02T04:41:35.960Z,317
2023-05-02T04:42:08.141Z,317
2023-05-02T04:42:39.863Z,317
2023-05-02T04:43:11.802Z,321
2023-05-02T04:43:43.893Z,322
2023-05-02T04:44:16.044Z,322
2023-05-02T04:44:47.944Z,322
2023-05-02T04:45:20.334Z,322
2023-05-02T04:45:51.842Z,322
2023-05-02T04:46:23.788Z,322
2023-05-02T04:46:55.780Z,322
2023-05-02T04:47:27.984Z,322
2023-05-02T04:47:59.866Z,322
2023-05-02T04:48:31.824Z,321
2023-05-02T04:49:04.149Z,321
2023-05-02T04:49:35.533Z,321
2023-05-02T04:50:08.050Z,321
2023-05-02T04:50:39.752Z,321
2023-05-02T04:51:11.312Z,322
2023-05-02T04:51:43.494Z,322
2023-05-02T04:52:00.026Z,322
2023-05-02T04:52:31.470Z,322
2023-05-02T04:53:15.660Z,322
2023-05-02T04:53:47.634Z,322
2023-05-02T04:54:19.612Z,321
2023-05-02T04:54:51.555Z,321
2023-05-02T04:55:23.825Z,321
2023-05-02T04:55:55.230Z,321
2023-05-02T04:56:27.309Z,321
2023-05-02T04:56:43.565Z,321
2023-05-02T04:57:27.467Z,321
2023-05-02T04:57:59.364Z,321
2023-05-02T04:58:31.205Z,321
2023-05-02T04:59:03.804Z,321
2023-05-02T04:59:35.268Z,321
2023-05-02T05:00:10.023Z,321
2023-05-02T05:00:39.086Z,321
2023-05-02T05:01:11.160Z,321
2023-05-02T05:01:43.215Z,321
2023-05-02T05:02:15.336Z,321
2023-05-02T05:02:47.200Z,320
2023-05-02T05:03:19.274Z,321
2023-05-02T05:03:51.185Z,321
2023-05-02T05:04:23.316Z,321
2023-05-02T05:04:54.953Z,321
2023-05-02T05:05:27.864Z,320
2023-05-02T05:05:43.318Z,320
2023-05-02T05:06:14.940Z,320
2023-05-02T05:06:31.050Z,274
2023-05-02T05:07:03.148Z,246
2023-05-02T05:07:34.825Z,246
2023-05-02T05:08:06.939Z,246
2023-05-02T05:08:38.904Z,246
2023-05-02T05:09:10.806Z,246
2023-05-02T05:09:47.819Z,246
2023-05-02T05:09:59.333Z,246
2023-05-02T05:10:31.057Z,246
2023-05-02T05:11:14.857Z,189
2023-05-02T05:11:46.678Z,189
2023-05-02T05:12:18.886Z,185
2023-05-02T05:12:50.719Z,185
2023-05-02T05:13:22.768Z,185
2023-05-02T05:13:54.581Z,185
2023-05-02T05:14:26.571Z,185
2023-05-02T05:14:42.817Z,185
2023-05-02T05:15:29.066Z,185
2023-05-02T05:15:58.880Z,185
2023-05-02T05:16:30.543Z,185
2023-05-02T05:17:02.918Z,185
2023-05-02T05:17:34.416Z,185
2023-05-02T05:18:06.504Z,185
2023-05-02T05:18:38.628Z,185
2023-05-02T05:19:10.697Z,185
2023-05-02T05:19:42.449Z,185
2023-05-02T05:20:17.737Z,185
2023-05-02T05:20:46.291Z,185
2023-05-02T05:21:18.363Z,185
2023-05-02T05:21:50.350Z,185
2023-05-02T05:22:22.233Z,185
2023-05-02T05:22:54.413Z,185
2023-05-02T05:23:26.152Z,186
2023-05-02T05:23:42.287Z,185
2023-05-02T05:24:14.187Z,186
2023-05-02T05:24:30.251Z,186
2023-05-02T05:25:02.995Z,186
2023-05-02T05:25:34.138Z,185
2023-05-02T05:26:06.014Z,186
2023-05-02T05:26:38.100Z,186
2023-05-02T05:27:10.356Z,186
2023-05-02T05:27:41.904Z,186
2023-05-02T05:27:58.236Z,186
2023-05-02T05:28:29.834Z,186
2023-05-02T05:29:14.231Z,186
2023-05-02T05:29:45.987Z,186
2023-05-02T05:30:20.160Z,198
2023-05-02T05:30:49.974Z,198
2023-05-02T05:31:22.060Z,198
2023-05-02T05:31:54.022Z,198
2023-05-02T05:32:25.882Z,198
2023-05-02T05:32:42.015Z,198
2023-05-02T05:33:25.824Z,198
2023-05-02T05:33:58.098Z,198
2023-05-02T05:34:29.768Z,198
2023-05-02T05:35:02.404Z,198
2023-05-02T05:35:33.743Z,198
2023-05-02T05:36:06.011Z,198
2023-05-02T05:36:37.980Z,198
2023-05-02T05:37:09.620Z,198
2023-05-02T05:37:41.627Z,198
2023-05-02T05:38:13.760Z,198
2023-05-02T05:38:45.591Z,198
2023-05-02T05:39:17.582Z,198
2023-05-02T05:39:50.249Z,198
2023-05-02T05:40:21.949Z,198
2023-05-02T05:40:53.621Z,198
2023-05-02T05:41:25.382Z,198
2023-05-02T05:41:41.722Z,198
2023-05-02T05:42:13.513Z,198
2023-05-02T05:42:29.644Z,198
2023-05-02T05:43:01.707Z,198
2023-05-02T05:43:33.308Z,198
2023-05-02T05:44:05.676Z,198
2023-05-02T05:44:37.686Z,198
2023-05-02T05:45:11.020Z,198
2023-05-02T05:45:44.627Z,198
2023-05-02T05:45:57.609Z,198
2023-05-02T05:46:29.302Z,198
2023-05-02T05:47:13.443Z,198
2023-05-02T05:47:45.323Z,198
2023-05-02T05:48:17.265Z,198
2023-05-02T05:48:49.202Z,198
2023-05-02T05:49:21.213Z,198
2023-05-02T05:49:53.314Z,198
2023-05-02T05:50:25.328Z,198
2023-05-02T05:50:41.232Z,198
2023-05-02T05:51:25.131Z,198
2023-05-02T05:51:57.144Z,198
2023-05-02T05:52:29.354Z,198
2023-05-02T05:53:01.046Z,198
2023-05-02T05:53:33.111Z,198
2023-05-02T05:54:05.412Z,198
2023-05-02T05:54:37.113Z,198
2023-05-02T05:55:09.365Z,195
2023-05-02T05:55:42.342Z,164
2023-05-02T05:56:13.039Z,198
2023-05-02T05:56:44.948Z,177
2023-05-02T05:57:16.808Z,187
2023-05-02T05:57:48.743Z,201
2023-05-02T05:58:20.807Z,200
2023-05-02T05:58:52.655Z,201
2023-05-02T05:59:24.711Z,201
2023-05-02T05:59:56.738Z,200
2023-05-02T06:00:29.325Z,200
2023-05-02T06:01:00.623Z,201
2023-05-02T06:01:34.391Z,201
2023-05-02T06:02:05.037Z,201
2023-05-02T06:02:36.721Z,201
2023-05-02T06:03:09.804Z,201
2023-05-02T06:03:40.609Z,200
2023-05-02T06:03:56.854Z,201
2023-05-02T06:04:28.510Z,201
2023-05-02T06:05:14.816Z,201
2023-05-02T06:05:44.496Z,201
2023-05-02T06:06:16.521Z,201
2023-05-02T06:06:48.807Z,201
2023-05-02T06:07:20.449Z,201
2023-05-02T06:07:52.256Z,200
2023-05-02T06:08:08.674Z,201
2023-05-02T06:08:40.312Z,201
2023-05-02T06:08:56.380Z,201
2023-05-02T06:09:28.437Z,201
2023-05-02T06:10:00.958Z,201
2023-05-02T06:10:32.146Z,201
2023-05-02T06:11:04.493Z,201
2023-05-02T06:11:36.289Z,201
2023-05-02T06:12:08.311Z,201
2023-05-02T06:12:40.141Z,201
2023-05-02T06:12:56.182Z,201
2023-05-02T06:13:41.739Z,201
2023-05-02T06:14:12.254Z,201
2023-05-02T06:14:44.194Z,201
2023-05-02T06:15:17.734Z,201
2023-05-02T06:15:48.341Z,201
2023-05-02T06:16:20.226Z,201
2023-05-02T06:16:51.798Z,201
2023-05-02T06:17:24.157Z,201
2023-05-02T06:17:56.025Z,201
2023-05-02T06:18:28.171Z,201
2023-05-02T06:19:00.051Z,201
2023-05-02T06:19:31.910Z,201
2023-05-02T06:20:04.689Z,201
2023-05-02T06:20:36.049Z,201
2023-05-02T06:21:08.097Z,201
2023-05-02T06:21:39.786Z,201
2023-05-02T06:22:11.893Z,201
2023-05-02T06:22:43.931Z,201
2023-05-02T06:23:15.684Z,201
2023-05-02T06:23:47.795Z,201
2023-05-02T06:24:19.915Z,201
2023-05-02T06:24:51.662Z,201
2023-05-02T06:25:30.625Z,201
2023-05-02T06:25:39.918Z,201
2023-05-02T06:26:23.668Z,201
2023-05-02T06:26:55.730Z,201
2023-05-02T06:27:27.705Z,201
2023-05-02T06:27:59.538Z,201
2023-05-02T06:28:15.556Z,201
2023-05-02T06:28:47.408Z,201
2023-05-02T06:29:31.568Z,201
2023-05-02T06:30:06.195Z,201
2023-05-02T06:30:35.572Z,201
2023-05-02T06:31:07.599Z,201
2023-05-02T06:31:39.648Z,201
2023-05-02T06:32:13.392Z,220
2023-05-02T06:32:43.290Z,220
2023-05-02T06:33:15.490Z,220
2023-05-02T06:33:47.536Z,220
2023-05-02T06:34:19.516Z,220
2023-05-02T06:34:51.449Z,220
2023-05-02T06:35:25.008Z,220
2023-05-02T06:35:55.373Z,220
2023-05-02T06:36:27.422Z,220
2023-05-02T06:36:59.297Z,220
2023-05-02T06:37:32.819Z,220
2023-05-02T06:38:04.389Z,317
2023-05-02T06:38:35.263Z,344
2023-05-02T06:39:07.195Z,312
2023-05-02T06:39:39.397Z,311
2023-05-02T06:40:11.464Z,311
2023-05-02T06:40:43.140Z,334
2023-05-02T06:41:17.265Z,332
2023-05-02T06:41:48.353Z,318
2023-05-02T06:42:18.982Z,342
2023-05-02T06:42:51.032Z,335
2023-05-02T06:43:23.020Z,327
2023-05-02T06:43:39.487Z,327
2023-05-02T06:44:22.885Z,329
2023-05-02T06:44:54.865Z,335
2023-05-02T06:45:29.600Z,337
2023-05-02T06:45:58.764Z,348
2023-05-02T06:46:30.904Z,348
2023-05-02T06:47:03.555Z,348
2023-05-02T06:47:34.927Z,348
2023-05-02T06:48:06.618Z,298
2023-05-02T06:48:38.741Z,287
2023-05-02T06:49:10.757Z,292
2023-05-02T06:49:42.775Z,292
2023-05-02T06:50:14.836Z,274
2023-05-02T06:50:46.871Z,274
2023-05-02T06:51:18.740Z,274
2023-05-02T06:51:52.453Z,274
2023-05-02T06:52:22.414Z,274
2023-05-02T06:52:38.757Z,274
2023-05-02T06:53:10.704Z,274
2023-05-02T06:53:54.639Z,274
2023-05-02T06:54:26.668Z,274
2023-05-02T06:54:58.593Z,274
2023-05-02T06:55:31.042Z,273
2023-05-02T06:56:04.029Z,273
2023-05-02T06:56:34.528Z,273
2023-05-02T06:57:06.261Z,273
2023-05-02T06:57:38.641Z,274
2023-05-02T06:57:54.427Z,358
2023-05-02T06:58:26.311Z,359
2023-05-02T06:59:10.094Z,355
2023-05-02T06:59:26.286Z,355
2023-05-02T07:00:11.721Z,354
2023-05-02T07:00:26.347Z,346
2023-05-02T07:01:10.220Z,3
2023-05-02T07:01:42.299Z,3
2023-05-02T07:02:13.957Z,3
2023-05-02T07:02:46.031Z,4
2023-05-02T07:03:18.129Z,4
2023-05-02T07:03:50.197Z,351
2023-05-02T07:04:21.966Z,345
2023-05-02T07:04:38.457Z,345
2023-05-02T07:05:23.747Z,345
2023-05-02T07:05:53.984Z,327
2023-05-02T07:06:26.026Z,312
2023-05-02T07:06:59.746Z,279
2023-05-02T07:07:30.031Z,284
2023-05-02T07:08:02.299Z,283
2023-05-02T07:08:33.814Z,283
2023-05-02T07:09:05.826Z,313
2023-05-02T07:09:38.028Z,318
2023-05-02T07:10:11.844Z,318